Time;durP1;ratioP1;P1;durP2;ratioP2;P2;SDS_P1;SDS_P2;PMS_P1;PMS_P2;Temp;Humidity;BMP_temperature;BMP_pressure;BME280_temperature;BME280_humidity;BME280_pressure;Samples;Min_cycle;Max_cycle;Signal;HPM_P1;HPM_P2
2023/12/29 05:32:27;;;;;;;0.10;0.10;;;10.70;89.60;;;;;;4917461;23;20040;-77
2023/12/29 05:34:52;;;;;;;0.10;0.10;;;10.70;89.60;;;;;;4893699;29;20448;-77
2023/12/29 05:37:18;;;;;;;0.10;0.10;;;10.80;89.70;;;;;;4910432;29;20028;-77
2023/12/29 05:39:44;;;;;;;0.10;0.10;;;10.80;89.90;;;;;;4888730;29;20534;-77
2023/12/29 05:42:09;;;;;;;0.10;0.10;;;10.80;89.90;;;;;;4905489;29;20020;-77
2023/12/29 05:44:38;;;;;;;0.10;0.10;;;10.80;90.00;;;;;;4888430;29;20040;-77
2023/12/29 05:47:05;;;;;;;0.10;0.10;;;10.80;89.80;;;;;;4886255;29;20033;-77
2023/12/29 05:49:31;;;;;;;0.10;0.10;;;10.80;89.90;;;;;;4897298;29;20033;-78
2023/12/29 05:51:57;;;;;;;0.10;0.10;;;10.80;90.00;;;;;;4888035;29;20476;-77
2023/12/29 05:54:24;;;;;;;0.10;0.10;;;10.70;90.10;;;;;;4905193;29;20037;-78
2023/12/29 05:56:50;;;;;;;0.10;0.10;;;10.70;90.00;;;;;;4904864;29;20114;-78
2023/12/29 05:59:15;;;;;;;0.10;0.10;;;10.70;90.10;;;;;;4903806;29;20507;-78
2023/12/29 06:01:41;;;;;;;0.10;0.10;;;10.70;90.10;;;;;;4903995;29;20028;-78
2023/12/29 06:04:07;;;;;;;0.10;0.10;;;10.70;90.20;;;;;;4904745;29;20021;-78
2023/12/29 06:06:32;;;;;;;0.10;0.10;;;10.80;90.20;;;;;;4911851;29;20032;-77
2023/12/29 06:08:58;;;;;;;0.10;0.10;;;10.80;90.10;;;;;;4916756;29;20033;-78
2023/12/29 06:11:24;;;;;;;0.08;0.08;;;10.80;90.10;;;;;;4888024;29;20033;-78
2023/12/29 06:13:49;;;;;;;0.10;0.10;;;10.80;90.00;;;;;;4888018;29;20032;-78
2023/12/29 06:16:21;;;;;;;0.10;0.10;;;10.80;90.00;;;;;;4904075;29;20029;-78
2023/12/29 06:18:47;;;;;;;0.10;0.10;;;10.80;90.10;;;;;;4904686;29;20103;-77
2023/12/29 06:21:13;;;;;;;0.10;0.10;;;10.80;90.10;;;;;;4904044;29;20029;-78
2023/12/29 06:23:38;;;;;;;0.10;0.10;;;10.80;90.10;;;;;;4884178;29;20507;-78
2023/12/29 06:26:04;;;;;;;0.10;0.10;;;10.70;90.10;;;;;;4885787;29;20033;-77
2023/12/29 06:28:30;;;;;;;0.10;0.10;;;10.70;90.10;;;;;;4886006;29;20036;-77
2023/12/29 06:30:56;;;;;;;0.10;0.10;;;10.70;90.10;;;;;;4872431;29;20056;-77
2023/12/29 06:33:22;;;;;;;0.10;0.10;;;10.70;90.10;;;;;;4896005;29;20146;-77
2023/12/29 06:35:48;;;;;;;0.10;0.10;;;10.70;90.20;;;;;;4904512;29;20040;-77
2023/12/29 06:38:14;;;;;;;0.10;0.10;;;10.60;90.10;;;;;;4904209;29;20032;-78
2023/12/29 06:40:41;;;;;;;0.10;0.10;;;10.60;90.20;;;;;;4912613;29;20044;-77
2023/12/29 06:43:06;;;;;;;0.10;0.10;;;10.60;90.20;;;;;;4904587;29;20084;-77
2023/12/29 06:45:32;;;;;;;0.10;0.10;;;10.60;90.20;;;;;;4904250;29;20032;-78
2023/12/29 06:47:58;;;;;;;0.10;0.10;;;10.60;90.20;;;;;;4904235;29;20033;-77
2023/12/29 06:50:23;;;;;;;0.10;0.10;;;10.60;90.20;;;;;;4902973;29;20032;-77
2023/12/29 06:52:49;;;;;;;0.15;0.10;;;10.60;90.30;;;;;;4904084;29;20029;-77
2023/12/29 06:55:14;;;;;;;0.10;0.10;;;10.60;90.20;;;;;;4902914;29;20032;-78
2023/12/29 06:57:40;;;;;;;0.10;0.10;;;10.60;90.20;;;;;;4903811;29;20100;-78
2023/12/29 07:00:06;;;;;;;0.10;0.10;;;10.60;90.20;;;;;;4903411;29;20032;-78
2023/12/29 07:02:32;;;;;;;0.10;0.10;;;10.60;90.20;;;;;;4885057;29;20041;-77
2023/12/29 07:04:57;;;;;;;0.10;0.10;;;10.60;90.20;;;;;;4917357;29;20396;-77
2023/12/29 07:07:24;;;;;;;0.10;0.10;;;10.60;90.20;;;;;;4903438;29;20017;-77
2023/12/29 07:09:49;;;;;;;0.10;0.10;;;10.60;90.10;;;;;;4902710;29;20477;-77
2023/12/29 07:12:15;;;;;;;0.08;0.08;;;10.60;90.30;;;;;;4901613;29;20047;-77
2023/12/29 07:14:41;;;;;;;0.10;0.10;;;10.70;90.20;;;;;;4903740;29;20619;-78
2023/12/29 07:17:07;;;;;;;0.10;0.10;;;10.70;90.20;;;;;;4903668;29;20028;-77
2023/12/29 07:19:38;;;;;;;0.10;0.10;;;10.70;90.20;;;;;;4903546;29;20028;-77
2023/12/29 07:22:05;;;;;;;0.20;0.10;;;10.70;90.20;;;;;;4901935;29;20116;-77
2023/12/29 07:24:32;;;;;;;0.10;0.10;;;10.70;90.10;;;;;;4903771;29;20040;-77
2023/12/29 07:26:57;;;;;;;0.10;0.10;;;10.70;90.10;;;;;;4903406;29;20040;-77
2023/12/29 07:29:23;;;;;;;0.10;0.10;;;10.70;90.10;;;;;;4916267;29;20036;-77
2023/12/29 07:31:49;;;;;;;0.10;0.10;;;10.70;90.20;;;;;;4903295;29;20120;-78
2023/12/29 07:34:14;;;;;;;0.10;0.10;;;10.70;90.10;;;;;;4903552;29;20068;-77
2023/12/29 07:36:40;;;;;;;0.10;0.10;;;10.70;90.20;;;;;;4903368;29;20387;-77
2023/12/29 07:39:06;;;;;;;0.10;0.10;;;10.70;90.20;;;;;;4902314;29;20024;-77
2023/12/29 07:41:32;;;;;;;0.10;0.10;;;10.70;90.30;;;;;;4905028;29;20032;-77
2023/12/29 07:43:58;;;;;;;0.10;0.10;;;10.70;90.20;;;;;;4921760;29;20037;-77
2023/12/29 07:46:27;;;;;;;0.10;0.10;;;10.80;90.20;;;;;;4910672;29;20518;-77
2023/12/29 07:48:52;;;;;;;0.10;0.10;;;10.80;90.10;;;;;;4902421;29;20103;-77
2023/12/29 07:51:18;;;;;;;0.10;0.10;;;10.70;90.00;;;;;;4903093;29;20085;-77
2023/12/29 07:53:44;;;;;;;0.10;0.10;;;10.70;90.10;;;;;;4902372;29;20073;-78
2023/12/29 07:56:11;;;;;;;0.10;0.10;;;10.70;90.20;;;;;;4903186;29;20041;-77
2023/12/29 07:58:36;;;;;;;0.10;0.10;;;10.60;90.20;;;;;;4902405;29;20499;-77
2023/12/29 08:01:02;;;;;;;0.10;0.10;;;10.60;90.20;;;;;;4902782;29;20024;-78
2023/12/29 08:03:28;;;;;;;0.10;0.10;;;10.70;90.20;;;;;;4901888;29;20025;-77
2023/12/29 08:05:53;;;;;;;0.10;0.10;;;10.70;90.30;;;;;;4902906;29;20037;-78
2023/12/29 08:08:19;;;;;;;0.10;0.10;;;10.70;90.30;;;;;;4902435;29;20043;-78
2023/12/29 08:10:44;;;;;;;0.10;0.10;;;10.70;90.30;;;;;;4902020;29;20048;-77
2023/12/29 08:13:10;;;;;;;0.10;0.10;;;10.70;90.30;;;;;;4901401;29;20065;-77
2023/12/29 08:15:37;;;;;;;0.10;0.10;;;10.70;90.20;;;;;;4902331;29;20068;-77
2023/12/29 08:18:03;;;;;;;0.10;0.10;;;10.70;90.10;;;;;;4902566;29;20021;-77
2023/12/29 08:20:29;;;;;;;0.10;0.10;;;10.80;90.10;;;;;;4902516;29;20512;-77
2023/12/29 08:22:55;;;;;;;0.10;0.10;;;10.80;90.00;;;;;;4900894;29;20087;-77
2023/12/29 08:25:21;;;;;;;0.10;0.10;;;10.80;90.00;;;;;;4902322;29;20036;-77
2023/12/29 08:27:46;;;;;;;0.10;0.10;;;10.80;90.00;;;;;;4885552;29;20506;-77
2023/12/29 08:30:12;;;;;;;0.10;0.10;;;10.90;89.90;;;;;;4900968;29;20096;-77
2023/12/29 08:32:38;;;;;;;0.10;0.10;;;10.90;89.90;;;;;;4902390;29;20040;-77
2023/12/29 08:35:04;;;;;;;0.10;0.10;;;11.00;89.80;;;;;;4901214;29;20020;-77
2023/12/29 08:37:29;;;;;;;0.10;0.10;;;11.00;89.80;;;;;;4885562;29;20040;-77
2023/12/29 08:39:55;;;;;;;0.10;0.10;;;11.10;89.70;;;;;;4904362;29;20107;-77
2023/12/29 08:42:21;;;;;;;0.10;0.10;;;11.00;89.70;;;;;;4901273;29;20032;-77
2023/12/29 08:44:47;;;;;;;0.10;0.10;;;11.10;89.70;;;;;;4902087;29;20024;-77
2023/12/29 08:47:13;;;;;;;0.10;0.10;;;11.20;89.70;;;;;;4902144;29;20064;-77
2023/12/29 08:49:40;;;;;;;0.13;0.13;;;11.20;89.50;;;;;;4901055;29;20031;-78
2023/12/29 08:52:07;;;;;;;0.10;0.10;;;11.30;89.60;;;;;;4901494;29;20033;-77
2023/12/29 08:54:32;;;;;;;0.10;0.10;;;11.30;89.50;;;;;;4885074;29;20025;-77
2023/12/29 08:56:58;;;;;;;0.10;0.10;;;11.40;89.40;;;;;;4884594;29;20035;-77
2023/12/29 08:59:23;;;;;;;0.10;0.10;;;11.40;89.30;;;;;;4902082;29;20029;-78
2023/12/29 09:01:49;;;;;;;0.10;0.10;;;11.50;89.30;;;;;;4902220;29;20474;-77
2023/12/29 09:04:15;;;;;;;0.10;0.10;;;11.50;89.10;;;;;;4901823;29;20032;-77
2023/12/29 09:06:40;;;;;;;0.20;0.20;;;11.50;89.10;;;;;;4901041;29;20096;-77
2023/12/29 09:09:06;;;;;;;0.10;0.10;;;11.50;89.00;;;;;;4900498;29;20067;-77
2023/12/29 09:11:31;;;;;;;0.10;0.10;;;11.60;88.90;;;;;;4900787;29;20111;-78
2023/12/29 09:13:57;;;;;;;0.13;0.13;;;11.60;89.00;;;;;;4901741;29;20028;-77
2023/12/29 09:16:23;;;;;;;0.08;0.08;;;11.70;88.90;;;;;;4900972;29;20555;-77
2023/12/29 09:18:48;;;;;;;0.10;0.10;;;11.80;88.80;;;;;;4901763;29;20043;-77
2023/12/29 09:21:14;;;;;;;0.10;0.10;;;11.80;88.40;;;;;;4883970;29;20032;-78
2023/12/29 09:23:40;;;;;;;0.10;0.10;;;11.90;88.40;;;;;;4901737;29;20029;-77
2023/12/29 09:26:06;;;;;;;0.10;0.10;;;12.00;88.20;;;;;;4900600;29;20081;-77
2023/12/29 09:28:33;;;;;;;0.10;0.10;;;12.00;88.00;;;;;;4901661;29;20032;-77
2023/12/29 09:31:00;;;;;;;0.10;0.10;;;12.10;87.90;;;;;;4899313;29;20045;-77
2023/12/29 09:33:26;;;;;;;0.10;0.10;;;12.10;87.70;;;;;;4901031;29;20036;-77
2023/12/29 09:35:51;;;;;;;0.10;0.10;;;12.10;87.70;;;;;;4901739;29;20028;-77
2023/12/29 09:38:18;;;;;;;0.10;0.10;;;12.10;87.70;;;;;;4900333;29;20024;-77
2023/12/29 09:40:45;;;;;;;0.10;0.10;;;12.20;87.70;;;;;;4892920;29;20032;-78
2023/12/29 09:43:12;;;;;;;0.10;0.10;;;12.20;87.60;;;;;;4899429;29;20055;-77
2023/12/29 09:45:39;;;;;;;0.10;0.10;;;12.30;87.40;;;;;;4884484;29;20033;-77
2023/12/29 09:48:09;;;;;;;0.10;0.10;;;12.30;87.50;;;;;;4900220;29;20037;-77
2023/12/29 09:50:36;;;;;;;0.10;0.10;;;12.30;87.30;;;;;;4866274;29;20097;-77
2023/12/29 09:53:02;;;;;;;0.17;0.17;;;12.20;87.20;;;;;;4882609;29;20029;-78
2023/12/29 09:55:28;;;;;;;0.10;0.10;;;12.20;87.20;;;;;;4882650;29;20088;-77
2023/12/29 09:57:55;;;;;;;0.10;0.10;;;12.30;87.20;;;;;;4898325;29;20043;-77
2023/12/29 10:00:21;;;;;;;0.10;0.10;;;12.30;87.20;;;;;;4901194;29;20080;-78
2023/12/29 10:02:50;;;;;;;0.10;0.10;;;12.30;87.20;;;;;;4900353;29;20085;-77
2023/12/29 10:05:16;;;;;;;0.10;0.10;;;12.40;87.10;;;;;;4901349;29;20033;-77
2023/12/29 10:07:45;;;;;;;0.10;0.10;;;12.50;87.00;;;;;;4901213;29;20084;-78
2023/12/29 10:10:16;;;;;;;0.10;0.10;;;12.60;86.90;;;;;;4901188;29;20433;-77
2023/12/29 10:12:43;;;;;;;0.10;0.10;;;12.60;86.70;;;;;;4900226;29;20033;-77
2023/12/29 10:15:35;;;;;;;0.10;0.10;;;12.60;86.70;;;;;;4901346;29;20029;-77
2023/12/29 10:18:12;;;;;;;0.10;0.10;;;12.50;86.80;;;;;;4899633;29;20445;-77
2023/12/29 10:20:58;;;;;;;0.10;0.10;;;12.50;86.70;;;;;;4901123;29;20020;-77
2023/12/29 10:23:36;;;;;;;0.10;0.10;;;12.50;86.80;;;;;;4903663;29;20071;-78
2023/12/29 10:26:03;;;;;;;0.10;0.10;;;12.50;86.70;;;;;;4887800;29;20029;-77
2023/12/29 10:28:29;;;;;;;0.00;0.00;;;12.50;86.80;;;;;;4903824;29;20075;-77
2023/12/29 10:30:54;;;;;;;0.10;0.10;;;12.50;86.90;;;;;;4903374;29;20158;-77
2023/12/29 10:33:21;;;;;;;0.10;0.10;;;12.50;87.00;;;;;;4904449;29;20059;-78
2023/12/29 10:36:07;;;;;;;0.10;0.10;;;12.50;87.10;;;;;;4904359;29;20029;-77
2023/12/29 10:38:33;;;;;;;0.10;0.10;;;12.50;87.20;;;;;;4903442;29;20056;-77
2023/12/29 10:41:16;;;;;;;0.10;0.10;;;12.50;87.10;;;;;;4897765;29;20048;-77
2023/12/29 10:43:43;;;;;;;0.10;0.10;;;12.50;87.10;;;;;;4923170;29;20379;-77
2023/12/29 10:46:09;;;;;;;0.10;0.10;;;12.60;87.10;;;;;;4911651;29;20043;-77
2023/12/29 10:48:36;;;;;;;0.10;0.10;;;12.60;87.00;;;;;;4904307;29;20032;-77
2023/12/29 10:51:05;;;;;;;0.10;0.10;;;12.70;86.80;;;;;;4903400;29;20036;-77
2023/12/29 10:53:32;;;;;;;0.10;0.10;;;12.70;86.90;;;;;;4887734;29;20044;-77
2023/12/29 10:55:58;;;;;;;0.10;0.10;;;12.80;86.80;;;;;;4904018;29;20035;-77
2023/12/29 10:58:27;;;;;;;0.10;0.10;;;12.80;86.70;;;;;;4887315;29;20024;-77
2023/12/29 11:00:54;;;;;;;0.10;0.10;;;13.00;86.70;;;;;;4902290;29;20395;-77
2023/12/29 11:03:19;;;;;;;0.20;0.20;;;13.00;86.40;;;;;;4902900;29;20104;-77
2023/12/29 11:05:45;;;;;;;0.08;0.08;;;13.10;86.30;;;;;;4903825;29;20067;-78
2023/12/29 11:08:19;;;;;;;0.10;0.10;;;13.20;86.20;;;;;;4889290;29;20082;-78
2023/12/29 11:10:45;;;;;;;0.10;0.10;;;13.30;86.00;;;;;;4903715;29;20501;-77
2023/12/29 11:13:13;;;;;;;0.10;0.10;;;13.20;85.70;;;;;;4900861;29;20068;-77
2023/12/29 11:15:44;;;;;;;0.10;0.10;;;13.10;85.70;;;;;;4903767;29;20069;-77
2023/12/29 11:18:15;;;;;;;0.10;0.10;;;13.00;86.00;;;;;;4902857;29;20085;-77
2023/12/29 11:20:42;;;;;;;0.10;0.10;;;13.10;86.10;;;;;;4886842;29;20056;-77
2023/12/29 11:23:10;;;;;;;0.10;0.10;;;13.10;86.10;;;;;;4902575;29;20115;-77
2023/12/29 11:25:36;;;;;;;0.10;0.10;;;13.10;85.90;;;;;;4903403;29;20081;-77
2023/12/29 11:28:04;;;;;;;0.10;0.10;;;13.20;85.80;;;;;;4903483;29;20096;-78
2023/12/29 11:30:29;;;;;;;0.10;0.10;;;13.20;85.70;;;;;;4902199;29;20051;-78
2023/12/29 11:33:03;;;;;;;0.10;0.10;;;13.10;85.80;;;;;;4901878;29;20033;-77
2023/12/29 11:35:35;;;;;;;0.10;0.10;;;13.10;86.10;;;;;;4902303;29;20025;-77
2023/12/29 11:38:10;;;;;;;0.10;0.10;;;13.10;86.20;;;;;;4903304;29;20055;-78
2023/12/29 11:41:04;;;;;;;0.08;0.08;;;13.00;86.30;;;;;;4910576;29;20024;-77
2023/12/29 11:43:30;;;;;;;0.10;0.10;;;13.00;86.40;;;;;;4917672;29;20045;-77
2023/12/29 11:45:55;;;;;;;0.10;0.10;;;13.00;86.70;;;;;;4902832;29;20052;-78
2023/12/29 11:48:53;;;;;;;0.10;0.10;;;13.00;87.10;;;;;;4903167;29;20021;-78
2023/12/29 11:51:33;;;;;;;0.10;0.10;;;13.00;87.30;;;;;;4902982;29;20040;-78
2023/12/29 11:54:02;;;;;;;0.10;0.10;;;13.00;87.50;;;;;;4884323;29;20060;-78
2023/12/29 11:56:35;;;;;;;0.10;0.10;;;13.00;87.60;;;;;;4891448;29;20484;-77
2023/12/29 11:59:22;;;;;;;0.00;0.00;;;13.10;87.70;;;;;;4884085;29;20041;-78
2023/12/29 12:02:00;;;;;;;0.10;0.10;;;13.10;87.80;;;;;;4902753;29;20029;-78
2023/12/29 12:04:42;;;;;;;0.10;0.10;;;13.10;87.70;;;;;;4901783;29;20048;-78
2023/12/29 12:07:23;;;;;;;0.10;0.10;;;13.10;87.70;;;;;;4901442;29;20028;-77
2023/12/29 12:09:50;;;;;;;0.10;0.10;;;13.10;87.90;;;;;;4889672;29;20059;-78
2023/12/29 12:12:39;;;;;;;0.10;0.10;;;13.10;87.90;;;;;;4901365;29;20035;-78
2023/12/29 12:15:28;;;;;;;0.10;0.10;;;13.20;87.80;;;;;;4902501;29;20487;-78
2023/12/29 12:17:54;;;;;;;0.10;0.10;;;13.20;87.90;;;;;;4902346;29;20067;-78
2023/12/29 12:20:20;;;;;;;0.10;0.10;;;13.20;87.90;;;;;;4901530;29;20116;-78
2023/12/29 12:22:50;;;;;;;0.10;0.10;;;13.20;87.70;;;;;;4902359;29;20056;-78
2023/12/29 12:25:16;;;;;;;0.10;0.10;;;13.20;87.80;;;;;;4901288;29;20120;-78
2023/12/29 12:27:42;;;;;;;0.10;0.10;;;13.20;87.70;;;;;;4902329;29;20488;-78
2023/12/29 12:30:09;;;;;;;0.00;0.00;;;13.30;87.70;;;;;;4902261;29;20032;-78
2023/12/29 12:32:35;;;;;;;0.10;0.10;;;13.40;87.50;;;;;;4902240;29;20036;-78
2023/12/29 12:35:01;;;;;;;0.10;0.10;;;13.50;87.40;;;;;;4868188;29;20067;-78
2023/12/29 12:37:29;;;;;;;0.10;0.10;;;13.50;87.30;;;;;;4882236;29;20089;-78
2023/12/29 12:39:55;;;;;;;0.10;0.10;;;13.40;87.10;;;;;;4887396;29;20029;-78
2023/12/29 12:42:22;;;;;;;0.10;0.10;;;13.40;87.10;;;;;;4916657;29;20521;-78
2023/12/29 12:45:04;;;;;;;0.10;0.10;;;13.30;87.20;;;;;;4885370;29;20028;-78
2023/12/29 12:47:55;;;;;;;0.10;0.10;;;13.30;87.20;;;;;;4902333;29;20033;-78
2023/12/29 12:50:20;;;;;;;0.10;0.10;;;13.50;87.20;;;;;;4894068;29;20115;-77
2023/12/29 12:52:46;;;;;;;0.10;0.10;;;13.70;86.80;;;;;;4901888;29;20040;-78
2023/12/29 12:55:14;;;;;;;0.10;0.10;;;13.80;86.50;;;;;;4901925;29;20056;-78
2023/12/29 12:57:40;;;;;;;0.10;0.10;;;13.80;86.50;;;;;;4901000;29;20104;-78
2023/12/29 13:00:08;;;;;;;0.10;0.10;;;13.80;86.30;;;;;;4901778;29;20111;-78
2023/12/29 13:02:34;;;;;;;0.10;0.10;;;13.80;86.10;;;;;;4901337;29;20025;-78
2023/12/29 13:05:05;;;;;;;0.10;0.10;;;13.80;86.20;;;;;;4885734;29;20025;-77
2023/12/29 13:07:31;;;;;;;0.10;0.10;;;13.70;86.30;;;;;;4885262;29;20025;-78
2023/12/29 13:09:57;;;;;;;0.10;0.10;;;13.70;86.30;;;;;;4901844;29;20029;-78
2023/12/29 13:12:24;;;;;;;0.10;0.10;;;13.60;86.10;;;;;;4900860;29;20028;-78
2023/12/29 13:14:51;;;;;;;0.10;0.10;;;13.50;86.20;;;;;;4901695;29;20479;-78
2023/12/29 13:17:17;;;;;;;0.10;0.10;;;13.50;86.50;;;;;;4901523;29;20096;-78
2023/12/29 13:19:43;;;;;;;0.10;0.10;;;13.40;86.60;;;;;;4901213;29;20152;-78
2023/12/29 13:22:11;;;;;;;0.10;0.10;;;13.30;86.70;;;;;;4901551;29;20021;-78
2023/12/29 13:24:46;;;;;;;0.10;0.10;;;13.30;87.10;;;;;;4900952;29;20031;-78
2023/12/29 13:27:13;;;;;;;0.05;0.05;;;13.20;87.60;;;;;;4900766;29;20107;-78
2023/12/29 13:29:39;;;;;;;0.05;0.05;;;13.20;87.60;;;;;;4900600;29;20032;-78
2023/12/29 13:32:20;;;;;;;0.00;0.00;;;13.20;87.70;;;;;;4901181;29;20105;-78
2023/12/29 13:35:08;;;;;;;0.10;0.10;;;13.20;87.70;;;;;;4886602;29;20037;-78
2023/12/29 13:37:46;;;;;;;0.10;0.10;;;13.20;87.70;;;;;;4900182;29;20032;-78
2023/12/29 13:40:23;;;;;;;0.10;0.10;;;13.20;87.80;;;;;;4905659;29;20035;-78
2023/12/29 13:42:54;;;;;;;0.05;0.05;;;13.20;87.80;;;;;;4917059;29;20032;-78
2023/12/29 13:45:20;;;;;;;0.00;0.00;;;13.10;87.90;;;;;;4900862;29;20035;-78
2023/12/29 13:47:46;;;;;;;0.10;0.10;;;13.00;88.10;;;;;;4901442;29;20025;-78
2023/12/29 13:50:12;;;;;;;0.00;0.00;;;12.90;88.30;;;;;;4881024;29;20032;-78
2023/12/29 13:52:38;;;;;;;0.10;0.10;;;12.90;88.70;;;;;;4882714;29;20026;-78
2023/12/29 13:55:05;;;;;;;0.10;0.10;;;12.80;88.90;;;;;;4882601;29;20100;-78
2023/12/29 13:57:34;;;;;;;0.08;0.08;;;12.80;88.80;;;;;;4869138;29;20032;-78
2023/12/29 14:00:24;;;;;;;0.10;0.10;;;12.80;88.90;;;;;;4888354;29;20021;-78
2023/12/29 14:02:55;;;;;;;0.10;0.10;;;12.80;88.90;;;;;;4904882;29;20021;-78
2023/12/29 14:05:46;;;;;;;0.10;0.10;;;12.80;88.90;;;;;;4882538;29;20041;-78
2023/12/29 14:08:21;;;;;;;0.10;0.10;;;12.80;88.90;;;;;;4898295;29;20032;-78
2023/12/29 14:10:46;;;;;;;0.10;0.10;;;12.80;88.70;;;;;;4904947;29;20032;-78
2023/12/29 14:13:14;;;;;;;0.10;0.10;;;12.80;88.30;;;;;;4887369;29;20024;-78
2023/12/29 14:15:44;;;;;;;0.10;0.10;;;12.60;88.70;;;;;;4904809;29;20039;-78
2023/12/29 14:18:13;;;;;;;0.10;0.10;;;12.60;88.70;;;;;;4904582;29;20504;-78
2023/12/29 14:20:40;;;;;;;0.10;0.10;;;12.50;88.20;;;;;;4904073;29;20028;-78
2023/12/29 14:23:06;;;;;;;0.10;0.10;;;12.50;88.30;;;;;;4904480;29;20020;-78
2023/12/29 14:25:37;;;;;;;0.10;0.10;;;12.50;88.20;;;;;;4904676;29;20104;-78
2023/12/29 14:28:16;;;;;;;0.10;0.10;;;12.50;88.20;;;;;;4903857;29;20036;-78
2023/12/29 14:30:42;;;;;;;0.10;0.10;;;12.50;88.00;;;;;;4904455;29;20394;-78
2023/12/29 14:33:07;;;;;;;0.10;0.10;;;12.50;88.10;;;;;;4904179;29;20120;-78
2023/12/29 14:35:33;;;;;;;0.10;0.10;;;12.50;88.20;;;;;;4904450;29;20507;-78
2023/12/29 14:37:59;;;;;;;0.10;0.10;;;12.50;88.20;;;;;;4903283;29;20457;-78
2023/12/29 14:40:25;;;;;;;0.10;0.10;;;12.50;88.10;;;;;;4910294;29;20035;-78
2023/12/29 14:42:50;;;;;;;0.10;0.10;;;12.60;88.20;;;;;;4920479;29;20076;-78
2023/12/29 14:45:16;;;;;;;0.10;0.10;;;12.60;88.00;;;;;;4904194;29;20033;-78
2023/12/29 14:47:42;;;;;;;0.10;0.10;;;12.50;88.00;;;;;;4904167;29;20036;-78
2023/12/29 14:50:08;;;;;;;0.10;0.10;;;12.60;88.10;;;;;;4903536;29;20053;-78
2023/12/29 14:52:33;;;;;;;0.05;0.05;;;12.50;87.10;;;;;;4904206;29;20025;-77
2023/12/29 14:54:59;;;;;;;0.10;0.10;;;12.50;86.80;;;;;;4903883;29;20067;-78
2023/12/29 14:57:24;;;;;;;0.10;0.10;;;12.40;86.80;;;;;;4902470;29;20032;-78
2023/12/29 14:59:50;;;;;;;0.10;0.10;;;12.50;86.80;;;;;;4904024;29;20092;-78
2023/12/29 15:02:16;;;;;;;0.10;0.10;;;12.40;86.60;;;;;;4903937;29;20025;-78
2023/12/29 15:04:41;;;;;;;0.10;0.10;;;12.40;86.30;;;;;;4902876;29;20032;-78
2023/12/29 15:07:07;;;;;;;0.10;0.10;;;12.40;86.40;;;;;;4886857;29;20033;-78
2023/12/29 15:09:35;;;;;;;0.00;0.00;;;12.40;86.60;;;;;;4901521;29;20033;-78
2023/12/29 15:12:01;;;;;;;0.10;0.10;;;12.30;86.20;;;;;;4903647;29;20052;-78
2023/12/29 15:14:28;;;;;;;0.10;0.10;;;12.30;86.60;;;;;;4903767;29;20035;-78
2023/12/29 15:16:53;;;;;;;0.10;0.10;;;12.30;86.00;;;;;;4903268;29;20032;-77
2023/12/29 15:19:19;;;;;;;0.10;0.10;;;12.30;86.20;;;;;;4903290;29;20028;-78
2023/12/29 15:21:45;;;;;;;0.10;0.10;;;12.20;85.80;;;;;;4903775;29;20035;-78
2023/12/29 15:24:10;;;;;;;0.00;0.00;;;12.20;86.10;;;;;;4902540;29;20029;-78
2023/12/29 15:26:36;;;;;;;0.10;0.10;;;12.20;86.00;;;;;;4903663;29;20407;-78
2023/12/29 15:29:02;;;;;;;0.10;0.10;;;12.10;85.30;;;;;;4885698;29;20079;-78
2023/12/29 15:31:28;;;;;;;0.10;0.10;;;12.00;85.70;;;;;;4903366;29;20053;-78
2023/12/29 15:33:53;;;;;;;0.10;0.10;;;12.00;85.80;;;;;;4886068;29;20035;-78
2023/12/29 15:36:23;;;;;;;0.10;0.10;;;11.90;86.40;;;;;;4886218;29;20403;-78
2023/12/29 15:38:52;;;;;;;0.10;0.10;;;11.90;86.30;;;;;;4903363;29;20031;-78
2023/12/29 15:41:18;;;;;;;0.10;0.10;;;11.80;86.20;;;;;;4915992;29;20047;-78
2023/12/29 15:43:45;;;;;;;0.10;0.10;;;11.90;86.30;;;;;;4902883;29;20025;-78
2023/12/29 15:46:18;;;;;;;0.10;0.10;;;11.80;86.30;;;;;;4893913;29;20036;-78
2023/12/29 15:48:44;;;;;;;0.10;0.10;;;11.70;86.10;;;;;;4884311;29;20056;-78
2023/12/29 15:51:13;;;;;;;0.10;0.10;;;11.70;86.40;;;;;;4867861;29;20040;-78
2023/12/29 15:53:42;;;;;;;0.10;0.10;;;11.70;86.30;;;;;;4897611;29;20032;-78
2023/12/29 15:56:08;;;;;;;0.10;0.10;;;11.60;86.40;;;;;;4902909;29;20025;-78
2023/12/29 15:58:34;;;;;;;0.10;0.10;;;11.60;86.90;;;;;;4901839;29;20060;-77
2023/12/29 16:00:59;;;;;;;0.10;0.10;;;11.60;86.80;;;;;;4903078;29;20028;-78
2023/12/29 16:03:25;;;;;;;0.10;0.10;;;11.60;86.80;;;;;;4902790;29;20387;-78
2023/12/29 16:05:51;;;;;;;0.10;0.10;;;11.50;86.80;;;;;;4885322;29;20373;-78
2023/12/29 16:08:16;;;;;;;0.10;0.10;;;11.50;86.90;;;;;;4902760;29;20033;-78
2023/12/29 16:10:42;;;;;;;0.10;0.10;;;11.50;87.00;;;;;;4902737;29;20027;-78
2023/12/29 16:13:08;;;;;;;0.10;0.10;;;11.40;86.80;;;;;;4901472;29;20044;-77
2023/12/29 16:15:34;;;;;;;0.10;0.10;;;11.40;87.00;;;;;;4884650;29;20136;-78
2023/12/29 16:18:02;;;;;;;0.10;0.10;;;11.30;87.10;;;;;;4902639;29;20024;-78
2023/12/29 16:20:28;;;;;;;0.10;0.10;;;11.30;87.10;;;;;;4902098;29;20036;-78
2023/12/29 16:22:53;;;;;;;0.10;0.10;;;11.30;87.10;;;;;;4902463;29;20021;-78
2023/12/29 16:25:19;;;;;;;0.10;0.10;;;11.20;87.40;;;;;;4901483;29;20036;-78
2023/12/29 16:27:46;;;;;;;0.10;0.10;;;11.20;87.30;;;;;;4902291;29;20060;-78
2023/12/29 16:30:12;;;;;;;0.10;0.10;;;11.20;87.20;;;;;;4902060;29;20452;-78
2023/12/29 16:32:38;;;;;;;0.10;0.10;;;11.20;87.30;;;;;;4901658;29;20089;-78
2023/12/29 16:35:04;;;;;;;0.10;0.10;;;11.10;87.40;;;;;;4901988;29;20029;-78
2023/12/29 16:37:37;;;;;;;0.10;0.10;;;11.20;87.60;;;;;;4902231;29;20041;-78
2023/12/29 16:40:05;;;;;;;0.10;0.10;;;11.20;87.50;;;;;;4904208;29;20507;-78
2023/12/29 16:42:31;;;;;;;0.10;0.10;;;11.10;87.50;;;;;;4921002;29;20764;-78
2023/12/29 16:44:56;;;;;;;0.10;0.10;;;11.00;87.40;;;;;;4921258;29;20087;-78
2023/12/29 16:47:22;;;;;;;0.10;0.10;;;11.00;87.60;;;;;;4912519;29;20040;-78
2023/12/29 16:49:47;;;;;;;0.10;0.10;;;10.90;87.50;;;;;;4901935;29;20032;-78
2023/12/29 16:52:13;;;;;;;0.10;0.10;;;10.90;87.60;;;;;;4900674;29;20036;-78
2023/12/29 16:54:39;;;;;;;0.10;0.10;;;10.80;87.70;;;;;;4885173;29;20040;-78
2023/12/29 16:57:05;;;;;;;0.10;0.10;;;10.80;87.70;;;;;;4901089;29;20041;-78
2023/12/29 16:59:31;;;;;;;0.10;0.10;;;10.80;87.70;;;;;;4885125;29;20032;-78
2023/12/29 17:01:57;;;;;;;0.10;0.10;;;10.80;87.70;;;;;;4900270;29;20035;-78
2023/12/29 17:04:26;;;;;;;0.10;0.10;;;10.70;87.60;;;;;;4901591;29;20035;-78
2023/12/29 17:06:51;;;;;;;0.10;0.10;;;10.70;87.60;;;;;;4901830;29;20084;-78
2023/12/29 17:09:17;;;;;;;0.10;0.10;;;10.70;87.90;;;;;;4900654;29;20037;-78
2023/12/29 17:11:44;;;;;;;0.10;0.10;;;10.70;88.00;;;;;;4901884;29;20036;-78
2023/12/29 17:14:10;;;;;;;0.10;0.10;;;10.70;88.00;;;;;;4901221;29;20399;-77
2023/12/29 17:16:39;;;;;;;0.10;0.10;;;10.70;88.00;;;;;;4900539;29;20051;-78
2023/12/29 17:19:05;;;;;;;0.10;0.10;;;10.70;88.20;;;;;;4885026;29;20100;-78
2023/12/29 17:21:31;;;;;;;0.10;0.10;;;10.70;88.00;;;;;;4900230;29;20478;-78
2023/12/29 17:23:56;;;;;;;0.10;0.10;;;10.60;88.00;;;;;;4900943;29;20029;-78
2023/12/29 17:26:22;;;;;;;0.10;0.10;;;10.50;88.20;;;;;;4901653;29;20032;-78
2023/12/29 17:28:49;;;;;;;0.10;0.10;;;10.50;88.40;;;;;;4900522;29;20495;-78
2023/12/29 17:31:15;;;;;;;0.10;0.10;;;10.50;88.50;;;;;;4901700;29;20060;-78
2023/12/29 17:33:40;;;;;;;0.10;0.10;;;10.50;88.70;;;;;;4905575;29;20515;-78
2023/12/29 17:36:10;;;;;;;0.00;0.00;;;10.50;88.70;;;;;;4904362;29;20460;-78
2023/12/29 17:38:36;;;;;;;0.10;0.10;;;10.40;88.80;;;;;;4905477;29;20063;-78
2023/12/29 17:41:03;;;;;;;0.10;0.10;;;10.40;88.90;;;;;;4904728;29;20037;-77
2023/12/29 17:43:30;;;;;;;0.00;0.00;;;10.40;88.90;;;;;;4904646;29;20114;-78
2023/12/29 17:45:56;;;;;;;0.00;0.00;;;10.40;89.00;;;;;;4905281;29;20044;-78
2023/12/29 17:48:22;;;;;;;0.10;0.10;;;10.50;89.20;;;;;;4904943;29;20024;-78
2023/12/29 17:50:48;;;;;;;0.10;0.10;;;10.50;89.10;;;;;;4904670;29;20060;-78
2023/12/29 17:53:16;;;;;;;0.10;0.10;;;10.40;89.20;;;;;;4888707;29;20522;-78
2023/12/29 17:55:43;;;;;;;0.10;0.10;;;10.40;89.30;;;;;;4905143;29;20037;-78
2023/12/29 17:58:09;;;;;;;0.10;0.10;;;10.30;89.50;;;;;;4903950;29;20032;-77
2023/12/29 18:00:35;;;;;;;0.10;0.10;;;10.40;89.30;;;;;;4897638;29;20115;-78
2023/12/29 18:03:01;;;;;;;0.10;0.10;;;10.40;89.30;;;;;;4903879;29;20108;-78
2023/12/29 18:05:26;;;;;;;0.10;0.10;;;10.30;89.30;;;;;;4888207;29;20025;-78
2023/12/29 18:07:52;;;;;;;0.10;0.10;;;10.30;89.50;;;;;;4904167;29;20032;-78
2023/12/29 18:10:17;;;;;;;0.10;0.10;;;10.30;89.30;;;;;;4904349;29;20403;-77
2023/12/29 18:12:43;;;;;;;0.03;0.03;;;10.30;89.10;;;;;;4904802;29;20029;-77
2023/12/29 18:15:13;;;;;;;0.00;0.00;;;10.30;89.30;;;;;;4904724;29;20043;-77
2023/12/29 18:17:38;;;;;;;0.10;0.10;;;10.40;89.20;;;;;;4904131;29;20032;-77
2023/12/29 18:20:05;;;;;;;0.10;0.10;;;10.40;89.20;;;;;;4904650;29;20039;-77
2023/12/29 18:22:30;;;;;;;0.10;0.10;;;10.40;89.30;;;;;;4904721;29;20025;-77